createdAt,value
2018-03-04T00:01:53.880Z,-2.80
2018-03-04T00:04:25.255Z,-2.90
2018-03-04T00:06:54.896Z,-2.90
2018-03-04T00:09:24.646Z,-2.90
2018-03-04T00:11:54.359Z,-2.90
2018-03-04T00:14:24.271Z,-2.90
2018-03-04T00:16:54.798Z,-2.90
2018-03-04T00:19:26.149Z,-2.90
2018-03-04T00:21:55.856Z,-2.90
2018-03-04T00:24:25.770Z,-2.90
2018-03-04T00:26:56.104Z,-2.90
2018-03-04T00:29:26.162Z,-2.90
2018-03-04T00:31:56.130Z,-2.90
2018-03-04T00:34:25.994Z,-2.90
2018-03-04T00:36:55.959Z,-3.00
2018-03-04T00:39:25.666Z,-3.00
2018-03-04T00:41:55.377Z,-3.00
2018-03-04T00:44:25.369Z,-3.00
2018-03-04T00:46:55.205Z,-3.00
2018-03-04T00:49:25.119Z,-3.00
2018-03-04T00:51:55.647Z,-3.00
2018-03-04T00:54:25.356Z,-3.00
2018-03-04T00:56:55.071Z,-3.00
2018-03-04T00:59:24.783Z,-3.00
2018-03-04T01:01:54.485Z,-3.00
2018-03-04T01:04:24.399Z,-3.00
2018-03-04T01:06:54.048Z,-3.00
2018-03-04T01:09:24.023Z,-3.10
2018-03-04T01:11:53.732Z,-3.10
2018-03-04T01:14:23.452Z,-3.10
2018-03-04T01:16:53.152Z,-3.10
2018-03-04T01:19:23.067Z,-3.10
2018-03-04T01:21:52.774Z,-3.10
2018-03-04T01:24:22.644Z,-3.10
2018-03-04T01:26:52.613Z,-3.10
2018-03-04T01:29:22.319Z,-3.10
2018-03-04T01:31:52.034Z,-3.10
2018-03-04T01:34:21.740Z,-3.10
2018-03-04T01:36:51.608Z,-3.10
2018-03-04T01:39:21.564Z,-3.10
2018-03-04T01:41:51.476Z,-3.10
2018-03-04T01:44:22.824Z,-3.20
2018-03-04T01:46:52.532Z,-3.20
2018-03-04T01:49:22.242Z,-3.10
2018-03-04T01:51:53.825Z,-3.10
2018-03-04T01:54:23.708Z,-3.20
2018-03-04T01:56:53.624Z,-3.20
2018-03-04T01:59:23.476Z,-3.20
2018-03-04T02:01:53.249Z,-3.20
2018-03-04T02:04:23.162Z,-3.20
2018-03-04T02:06:53.490Z,-3.20
2018-03-04T02:09:24.844Z,-3.30
2018-03-04T02:11:54.602Z,-3.30
2018-03-04T02:14:31.017Z,-3.30
2018-03-04T02:17:00.924Z,-3.30
2018-03-04T02:19:30.640Z,-3.30
2018-03-04T02:22:00.342Z,-3.30
2018-03-04T02:24:30.053Z,-3.30
2018-03-04T02:26:59.761Z,-3.30
2018-03-04T02:29:29.468Z,-3.30
2018-03-04T02:31:59.442Z,-3.30
2018-03-04T02:34:29.864Z,-3.30
2018-03-04T02:36:59.629Z,-3.30
2018-03-04T02:39:29.334Z,-3.30
2018-03-04T02:41:59.248Z,-3.30
2018-03-04T02:44:28.962Z,-3.30
2018-03-04T02:47:00.307Z,-3.40
2018-03-04T02:49:30.016Z,-3.40
2018-03-04T02:51:59.724Z,-3.40
2018-03-04T02:54:30.054Z,-3.40
2018-03-04T02:56:59.893Z,-3.40
2018-03-04T02:59:29.672Z,-3.40
2018-03-04T03:01:59.383Z,-3.40
2018-03-04T03:04:29.295Z,-3.40
2018-03-04T03:06:59.006Z,-3.40
2018-03-04T03:09:28.921Z,-3.40
2018-03-04T03:11:58.785Z,-3.40
2018-03-04T03:14:28.544Z,-3.40
2018-03-04T03:16:58.253Z,-3.40
2018-03-04T03:19:28.174Z,-3.40
2018-03-04T03:21:58.025Z,-3.50
2018-03-04T03:24:27.791Z,-3.50
2018-03-04T03:26:58.320Z,-3.50
2018-03-04T03:29:28.029Z,-3.50
2018-03-04T03:31:58.354Z,-3.50
2018-03-04T03:34:28.286Z,-3.50
2018-03-04T03:36:57.980Z,-3.50
2018-03-04T03:39:27.890Z,-3.50
2018-03-04T03:41:57.604Z,-3.50
2018-03-04T03:44:27.308Z,-3.50
2018-03-04T03:46:57.643Z,-3.50
2018-03-04T03:49:27.548Z,-3.50
2018-03-04T03:51:58.896Z,-3.50
2018-03-04T03:54:28.613Z,-3.50
2018-03-04T03:56:58.315Z,-3.50
2018-03-04T03:59:28.024Z,-3.50
2018-03-04T04:01:58.961Z,-3.60
2018-03-04T04:04:28.671Z,-3.60
2018-03-04T04:06:58.585Z,-3.60
2018-03-04T04:09:28.303Z,-3.60
2018-03-04T04:11:58.618Z,-3.60
2018-03-04T04:14:29.762Z,-3.60
2018-03-04T04:16:59.679Z,-3.60
2018-03-04T04:19:29.387Z,-3.60
2018-03-04T04:21:59.096Z,-3.60
2018-03-04T04:24:29.624Z,-3.60
2018-03-04T04:27:00.973Z,-3.70
2018-03-04T04:29:31.100Z,-3.60
2018-03-04T04:32:00.800Z,-3.70
2018-03-04T04:34:30.509Z,-3.70
2018-03-04T04:37:00.220Z,-3.70
2018-03-04T04:39:29.931Z,-3.70
2018-03-04T04:42:00.661Z,-3.70
2018-03-04T04:44:31.940Z,-3.70
2018-03-04T04:47:01.722Z,-3.70
2018-03-04T04:49:31.432Z,-3.70
2018-03-04T04:52:02.369Z,-3.70
2018-03-04T04:54:32.078Z,-3.70
2018-03-04T04:57:01.790Z,-3.80
2018-03-04T04:59:33.015Z,-3.70
2018-03-04T05:02:03.002Z,-3.80
2018-03-04T05:04:32.760Z,-3.80
2018-03-04T05:07:03.241Z,-3.80
2018-03-04T05:09:33.203Z,-3.80
2018-03-04T05:12:03.064Z,-3.80
2018-03-04T05:14:32.824Z,-3.80
2018-03-04T05:17:02.534Z,-3.80
2018-03-04T05:19:32.244Z,-3.80
2018-03-04T05:22:02.571Z,-3.80
2018-03-04T05:24:32.280Z,-3.80
2018-03-04T05:27:01.958Z,-3.80
2018-03-04T05:29:31.696Z,-3.90
2018-03-04T05:32:01.407Z,-3.90
2018-03-04T05:34:31.319Z,-3.90
2018-03-04T05:37:02.062Z,-3.80
2018-03-04T05:39:31.763Z,-3.90
2018-03-04T05:42:02.291Z,-3.90
2018-03-04T05:44:32.206Z,-3.90
2018-03-04T05:47:01.915Z,-3.90
2018-03-04T05:49:31.624Z,-3.90
2018-03-04T05:52:01.336Z,-3.90
2018-03-04T05:54:31.253Z,-3.90
2018-03-04T05:57:01.777Z,-3.90
2018-03-04T05:59:31.489Z,-3.90
2018-03-04T06:02:02.843Z,-3.90
2018-03-04T06:04:32.752Z,-3.90
2018-03-04T06:07:02.460Z,-3.90
2018-03-04T06:09:32.172Z,-4.00
2018-03-04T06:12:01.876Z,-4.00
2018-03-04T06:14:31.793Z,-4.00
2018-03-04T06:17:03.143Z,-4.00
2018-03-04T06:19:32.849Z,-4.00
2018-03-04T06:22:02.563Z,-4.00
2018-03-04T06:24:32.474Z,-3.90
2018-03-04T06:27:02.148Z,-4.00
2018-03-04T06:29:32.096Z,-4.00
2018-03-04T06:32:02.012Z,-4.00
2018-03-04T06:34:32.132Z,-4.00
2018-03-04T06:37:02.084Z,-4.00
2018-03-04T06:39:31.960Z,-4.00
2018-03-04T06:42:01.669Z,-4.00
2018-03-04T06:44:31.379Z,-4.00
2018-03-04T06:47:01.292Z,-4.00
2018-03-04T06:49:31.001Z,-4.00
2018-03-04T06:52:02.357Z,-4.00
2018-03-04T06:54:32.059Z,-4.00
2018-03-04T06:57:04.106Z,-4.10
2018-03-04T06:59:33.936Z,-4.10
2018-03-04T07:02:03.647Z,-4.10
2018-03-04T07:04:34.936Z,-4.00
2018-03-04T07:07:05.316Z,-4.00
2018-03-04T07:09:35.182Z,-4.10
2018-03-04T07:12:04.941Z,-4.00
2018-03-04T07:14:36.288Z,-4.10
2018-03-04T07:17:06.612Z,-4.10
2018-03-04T07:19:38.898Z,-4.10
2018-03-04T07:22:09.513Z,-4.10
2018-03-04T07:24:39.253Z,-4.10
2018-03-04T07:27:10.844Z,-4.10
2018-03-04T07:29:43.563Z,-4.10
2018-03-04T07:32:14.871Z,-4.10
2018-03-04T07:34:46.815Z,-4.10
2018-03-04T07:37:17.587Z,-4.10
2018-03-04T07:39:50.805Z,-4.20
2018-03-04T07:42:23.587Z,-4.10
2018-03-04T07:44:54.493Z,-4.10
2018-03-04T07:47:25.291Z,-4.10
2018-03-04T07:49:56.737Z,-4.10
2018-03-04T07:52:29.328Z,-4.20
2018-03-04T07:55:00.886Z,-4.20
2018-03-04T07:57:31.368Z,-4.10
2018-03-04T08:00:05.483Z,-4.10
2018-03-04T08:02:36.007Z,-4.10
2018-03-04T08:05:06.645Z,-4.10
2018-03-04T08:07:36.973Z,-4.00
2018-03-04T08:10:07.465Z,-3.90
2018-03-04T08:12:38.565Z,-3.70
2018-03-04T08:15:10.114Z,-3.60
2018-03-04T08:17:42.472Z,-3.50
2018-03-04T08:20:13.717Z,-3.40
2018-03-04T08:22:44.756Z,-3.30
2018-03-04T08:25:45.913Z,-3.30
2018-03-04T08:28:35.717Z,-3.20
2018-03-04T08:31:08.546Z,-3.10
2018-03-04T08:33:39.744Z,-3.00
2018-03-04T08:36:10.203Z,-3.00
2018-03-04T08:38:41.574Z,-2.90
2018-03-04T08:41:13.275Z,-2.90
2018-03-04T08:43:45.114Z,-2.80
2018-03-04T08:46:17.267Z,-2.80
2018-03-04T08:48:47.565Z,-2.80
2018-03-04T08:51:19.556Z,-2.70
2018-03-04T08:53:51.076Z,-2.70
2018-03-04T08:56:22.045Z,-2.60
2018-03-04T08:58:54.576Z,-2.60
2018-03-04T09:01:26.674Z,-2.50
2018-03-04T09:03:57.514Z,-2.50
2018-03-04T09:06:29.473Z,-2.40
2018-03-04T09:08:59.928Z,-2.40
2018-03-04T09:11:30.780Z,-2.30
2018-03-04T09:14:01.584Z,-2.30
2018-03-04T09:16:33.900Z,-2.20
2018-03-04T09:19:05.538Z,-2.20
2018-03-04T09:21:36.069Z,-2.10
2018-03-04T09:24:06.788Z,-2.10
2018-03-04T09:26:37.961Z,-2.10
2018-03-04T09:29:10.387Z,-2.00
2018-03-04T09:31:40.948Z,-2.00
2018-03-04T09:34:11.345Z,-2.00
2018-03-04T09:36:42.386Z,-1.90
2018-03-04T09:39:12.959Z,-1.90
2018-03-04T09:41:44.678Z,-1.80
2018-03-04T09:44:16.244Z,-1.80
2018-03-04T09:46:46.779Z,-1.70
2018-03-04T09:49:17.485Z,-1.70
2018-03-04T09:51:48.559Z,-1.70
2018-03-04T09:54:19.361Z,-1.60
2018-03-04T09:56:49.689Z,-1.60
2018-03-04T09:59:20.223Z,-1.60
2018-03-04T10:01:50.533Z,-1.50
2018-03-04T10:04:21.781Z,-1.50
2018-03-04T10:06:53.337Z,-1.50
2018-03-04T10:09:24.872Z,-1.50
2018-03-04T10:11:55.942Z,-1.40
2018-03-04T10:14:27.832Z,-1.40
2018-03-04T10:16:59.852Z,-1.30
2018-03-04T10:19:30.462Z,-1.30
2018-03-04T10:22:00.994Z,-1.30
2018-03-04T10:24:32.044Z,-1.30
2018-03-04T10:27:04.438Z,-1.20
2018-03-04T10:29:37.001Z,-1.20
2018-03-04T10:32:09.365Z,-1.20
2018-03-04T10:34:40.388Z,-1.20
2018-03-04T10:37:11.886Z,-1.20
2018-03-04T10:39:42.683Z,-1.20
2018-03-04T10:42:13.466Z,-1.20
2018-03-04T10:44:44.173Z,-1.20
2018-03-04T10:47:14.996Z,-1.30
2018-03-04T10:49:45.497Z,-1.30
2018-03-04T10:52:16.642Z,-1.40
2018-03-04T10:54:47.277Z,-1.50
2018-03-04T10:57:18.536Z,-1.70
2018-03-04T10:59:50.790Z,-1.70
2018-03-04T11:02:24.512Z,-1.80
2018-03-04T11:04:55.558Z,-1.80
2018-03-04T11:07:27.291Z,-1.90
2018-03-04T11:09:57.913Z,-1.90
2018-03-04T11:12:28.714Z,-1.90
2018-03-04T11:14:59.244Z,-1.90
2018-03-04T11:17:31.813Z,-1.90
2018-03-04T11:20:03.468Z,-2.00
2018-03-04T11:22:34.815Z,-2.00
2018-03-04T11:25:05.252Z,-2.00
2018-03-04T11:27:41.480Z,-2.00
2018-03-04T11:30:11.996Z,-2.00
2018-03-04T11:32:43.191Z,-2.10
2018-03-04T11:35:14.392Z,-2.10
2018-03-04T11:37:44.883Z,-2.10
2018-03-04T11:40:17.259Z,-2.10
2018-03-04T11:42:47.854Z,-2.10
2018-03-04T11:45:18.713Z,-2.00
2018-03-04T11:47:53.314Z,-2.10
2018-03-04T11:50:23.749Z,-2.00
2018-03-04T11:52:54.066Z,-2.00
2018-03-04T11:55:24.811Z,-2.00
2018-03-04T11:57:57.778Z,-2.00
2018-03-04T12:00:30.588Z,-2.00
2018-03-04T12:03:01.295Z,-2.00
2018-03-04T12:05:32.268Z,-2.00
2018-03-04T12:08:03.653Z,-2.00
2018-03-04T12:10:35.278Z,-2.00
2018-03-04T12:13:06.314Z,-2.00
2018-03-04T12:15:37.597Z,-2.00
2018-03-04T12:18:07.945Z,-2.00
2018-03-04T12:20:38.759Z,-2.00
2018-03-04T12:23:09.324Z,-2.00
2018-03-04T12:25:39.895Z,-2.00
2018-03-04T12:28:11.415Z,-2.00
2018-03-04T12:30:42.929Z,-2.00
2018-03-04T12:33:13.543Z,-2.00
2018-03-04T12:35:44.869Z,-2.00
2018-03-04T12:38:15.412Z,-2.00
2018-03-04T12:40:48.142Z,-2.00
2018-03-04T12:43:18.576Z,-2.00
2018-03-04T12:45:50.423Z,-2.00
2018-03-04T12:48:22.067Z,-2.00
2018-03-04T12:50:53.114Z,-2.00
2018-03-04T12:53:24.773Z,-2.00
2018-03-04T12:55:55.396Z,-2.00
2018-03-04T12:58:26.550Z,-2.00
2018-03-04T13:00:57.555Z,-2.00
2018-03-04T13:03:27.900Z,-2.00
2018-03-04T13:05:59.125Z,-2.00
2018-03-04T13:08:30.216Z,-2.00
2018-03-04T13:11:01.445Z,-1.90
2018-03-04T13:13:32.618Z,-2.10
2018-03-04T13:16:03.005Z,-2.20
2018-03-04T13:18:33.464Z,-2.10
2018-03-04T13:21:04.154Z,-2.00
2018-03-04T13:23:35.832Z,-2.00
2018-03-04T13:26:06.485Z,-2.00
2018-03-04T13:28:39.380Z,-2.00
2018-03-04T13:31:11.094Z,-2.00
2018-03-04T13:33:41.790Z,-2.00
2018-03-04T13:36:14.404Z,-1.90
2018-03-04T13:38:44.956Z,-1.90
2018-03-04T13:41:17.153Z,-1.90
2018-03-04T13:43:48.082Z,-1.90
2018-03-04T13:46:20.174Z,-1.90
2018-03-04T13:48:51.396Z,-1.90
2018-03-04T13:51:22.656Z,-1.90
2018-03-04T13:53:55.229Z,-1.90
2018-03-04T13:56:28.063Z,-1.90
2018-03-04T13:59:01.448Z,-1.90
2018-03-04T14:01:32.729Z,-1.90
2018-03-04T14:04:03.958Z,-1.90
2018-03-04T14:06:34.723Z,-1.90
2018-03-04T14:09:06.306Z,-1.80
2018-03-04T14:11:37.200Z,-1.80
2018-03-04T14:14:08.129Z,-1.80
2018-03-04T14:16:39.020Z,-1.80
2018-03-04T14:19:10.561Z,-1.80
2018-03-04T14:21:42.512Z,-1.80
2018-03-04T14:24:13.824Z,-1.70
2018-03-04T14:26:44.074Z,-1.80
2018-03-04T14:29:15.023Z,-1.70
2018-03-04T14:31:45.362Z,-1.70
2018-03-04T14:34:16.482Z,-1.70
2018-03-04T14:36:47.703Z,-1.70
2018-03-04T14:39:18.393Z,-1.70
2018-03-04T14:41:49.295Z,-1.70
2018-03-04T14:44:20.394Z,-1.70
2018-03-04T14:46:50.937Z,-1.70
2018-03-04T14:49:21.974Z,-1.70
2018-03-04T14:51:53.784Z,-1.70
2018-03-04T14:54:25.869Z,-1.70
2018-03-04T14:56:56.624Z,-1.70
2018-03-04T14:59:27.256Z,-1.80
2018-03-04T15:01:59.038Z,-1.70
2018-03-04T15:04:30.070Z,-1.70
2018-03-04T15:07:01.526Z,-1.70
2018-03-04T15:09:32.225Z,-1.70
2018-03-04T15:12:05.097Z,-1.70
2018-03-04T15:14:35.676Z,-1.70
2018-03-04T15:17:06.207Z,-1.70
2018-03-04T15:19:36.743Z,-1.70
2018-03-04T15:22:07.516Z,-1.70
2018-03-04T15:24:37.875Z,-1.70
2018-03-04T15:27:08.627Z,-1.70
2018-03-04T15:29:39.712Z,-1.80
2018-03-04T15:32:11.334Z,-1.80
2018-03-04T15:34:42.717Z,-1.80
2018-03-04T15:37:13.622Z,-1.80
2018-03-04T15:39:44.935Z,-1.90
2018-03-04T15:42:15.648Z,-1.80
2018-03-04T15:44:46.213Z,-1.80
2018-03-04T15:47:18.240Z,-1.80
2018-03-04T15:49:48.908Z,-1.80
2018-03-04T15:52:19.568Z,-1.90
2018-03-04T15:54:50.805Z,-1.80
2018-03-04T15:57:21.418Z,-1.80
2018-03-04T15:59:51.829Z,-1.80
2018-03-04T16:02:23.485Z,-1.80
2018-03-04T16:04:55.756Z,-1.80
2018-03-04T16:07:26.394Z,-1.80
2018-03-04T16:09:57.257Z,-1.80
2018-03-04T16:12:27.854Z,-1.80
2018-03-04T16:14:58.636Z,-1.80
2018-03-04T16:17:30.225Z,-1.80
2018-03-04T16:20:00.688Z,-1.80
2018-03-04T16:22:31.899Z,-1.80
2018-03-04T16:25:03.327Z,-1.80
2018-03-04T16:27:33.785Z,-1.80
2018-03-04T16:30:05.008Z,-1.80
2018-03-04T16:32:36.392Z,-1.80
2018-03-04T16:35:06.803Z,-1.90
2018-03-04T16:37:38.174Z,-1.90
2018-03-04T16:40:10.399Z,-1.90
2018-03-04T16:42:41.338Z,-1.90
2018-03-04T16:45:12.664Z,-1.90
2018-03-04T16:47:45.486Z,-1.90
2018-03-04T16:50:16.126Z,-1.90
2018-03-04T16:52:48.565Z,-1.90
2018-03-04T16:55:20.497Z,-1.90
2018-03-04T16:57:52.157Z,-1.90
2018-03-04T17:00:23.436Z,-1.90
2018-03-04T17:02:54.308Z,-1.90
2018-03-04T17:05:25.171Z,-1.90
2018-03-04T17:07:55.938Z,-1.90
2018-03-04T17:10:26.625Z,-1.90
2018-03-04T17:13:00.960Z,-1.90
2018-03-04T17:15:31.872Z,-1.90
2018-03-04T17:18:03.133Z,-1.90
2018-03-04T17:20:34.937Z,-1.90
2018-03-04T17:23:05.866Z,-1.90
2018-03-04T17:25:38.095Z,-1.90
2018-03-04T17:28:08.342Z,-1.90
2018-03-04T17:30:40.836Z,-1.90
2018-03-04T17:33:13.765Z,-1.90
2018-03-04T17:35:44.935Z,-1.90
2018-03-04T17:38:16.156Z,-1.80
2018-03-04T17:40:47.627Z,-1.90
2018-03-04T17:43:18.153Z,-1.80
2018-03-04T17:45:50.907Z,-1.80
2018-03-04T17:48:23.246Z,-1.80
2018-03-04T17:50:54.904Z,-1.80
2018-03-04T17:53:26.967Z,-1.80
2018-03-04T17:55:57.701Z,-1.80
2018-03-04T17:58:29.216Z,-1.80
2018-03-04T18:01:04.159Z,-1.80
2018-03-04T18:03:37.136Z,-1.80
2018-03-04T18:06:07.706Z,-1.80
2018-03-04T18:08:38.906Z,-1.80
2018-03-04T18:11:10.098Z,-1.80
2018-03-04T18:13:40.572Z,-1.80
2018-03-04T18:16:12.784Z,-1.80
2018-03-04T18:18:43.765Z,-1.70
2018-03-04T18:21:16.715Z,-1.70
2018-03-04T18:23:47.273Z,-1.70
2018-03-04T18:26:17.944Z,-1.70
2018-03-04T18:28:48.791Z,-1.70
2018-03-04T18:31:19.721Z,-1.70
2018-03-04T18:33:51.236Z,-1.70
2018-03-04T18:36:22.912Z,-1.70
2018-03-04T18:38:54.245Z,-1.70
2018-03-04T18:41:25.250Z,-1.70
2018-03-04T18:43:59.509Z,-1.70
2018-03-04T18:46:30.578Z,-1.70
2018-03-04T18:49:03.192Z,-1.70
2018-03-04T18:51:33.815Z,-1.70
2018-03-04T18:54:04.665Z,-1.70
2018-03-04T18:56:35.424Z,-1.70
2018-03-04T18:59:06.106Z,-1.70
2018-03-04T19:01:37.887Z,-1.70
2018-03-04T19:04:10.202Z,-1.70
2018-03-04T19:06:42.082Z,-1.70
2018-03-04T19:09:13.965Z,-1.70
2018-03-04T19:11:44.617Z,-1.70
2018-03-04T19:14:15.661Z,-1.60
2018-03-04T19:16:46.103Z,-1.70
2018-03-04T19:19:16.673Z,-1.60
2018-03-04T19:21:49.403Z,-1.60
2018-03-04T19:24:21.120Z,-1.60
2018-03-04T19:26:53.702Z,-1.60
2018-03-04T19:29:24.949Z,-1.60
2018-03-04T19:31:57.460Z,-1.60
2018-03-04T19:34:27.958Z,-1.60
2018-03-04T19:36:58.889Z,-1.60
2018-03-04T19:39:29.529Z,-1.60
2018-03-04T19:42:00.357Z,-1.60
2018-03-04T19:44:31.133Z,-1.60
2018-03-04T19:47:02.091Z,-1.60
2018-03-04T19:49:34.994Z,-1.60
2018-03-04T19:52:09.139Z,-1.60
2018-03-04T19:54:40.988Z,-1.60
2018-03-04T19:57:12.643Z,-1.60
2018-03-04T19:59:43.266Z,-1.60
2018-03-04T20:02:15.278Z,-1.60
2018-03-04T20:04:46.886Z,-1.60
2018-03-04T20:07:20.003Z,-1.60
2018-03-04T20:09:50.754Z,-1.50
2018-03-04T20:12:21.665Z,-1.50
2018-03-04T20:14:53.254Z,-1.50
2018-03-04T20:17:24.726Z,-1.50
2018-03-04T20:20:02.242Z,-1.50
2018-03-04T20:22:32.387Z,-1.60
2018-03-04T20:25:02.994Z,-1.50
2018-03-04T20:27:34.071Z,-1.50
2018-03-04T20:30:05.344Z,-1.50
2018-03-04T20:32:35.492Z,-1.50
2018-03-04T20:35:06.588Z,-1.50
2018-03-04T20:37:37.379Z,-1.50
2018-03-04T20:40:07.477Z,-1.50
2018-03-04T20:42:37.700Z,-1.50
2018-03-04T20:45:07.729Z,-1.50
2018-03-04T20:47:37.694Z,-1.50
2018-03-04T20:50:08.381Z,-1.50
2018-03-04T20:52:38.675Z,-1.50
2018-03-04T20:55:08.591Z,-1.50
2018-03-04T20:57:38.694Z,-1.50
2018-03-04T21:00:08.649Z,-1.50
2018-03-04T21:02:39.597Z,-1.50
2018-03-04T21:05:09.663Z,-1.50
2018-03-04T21:07:39.620Z,-1.50
2018-03-04T21:10:09.733Z,-1.50
2018-03-04T21:12:39.762Z,-1.50
2018-03-04T21:15:09.853Z,-1.50
2018-03-04T21:17:39.690Z,-1.50
2018-03-04T21:20:09.808Z,-1.40
2018-03-04T21:22:39.935Z,-1.40
2018-03-04T21:25:10.211Z,-1.40
2018-03-04T21:27:40.166Z,-1.50
2018-03-04T21:30:10.489Z,-1.50
2018-03-04T21:32:41.840Z,-1.40
2018-03-04T21:35:11.753Z,-1.40
2018-03-04T21:37:41.665Z,-1.40
2018-03-04T21:40:11.540Z,-1.40
2018-03-04T21:42:41.698Z,-1.40
2018-03-04T21:45:13.540Z,-1.40
2018-03-04T21:47:43.745Z,-1.40
2018-03-04T21:50:14.475Z,-1.40
2018-03-04T21:52:44.483Z,-1.40
2018-03-04T21:55:14.306Z,-1.40
2018-03-04T21:57:45.550Z,-1.40
2018-03-04T22:00:15.978Z,-1.40
2018-03-04T22:02:45.929Z,-1.40
2018-03-04T22:05:15.849Z,-1.40
2018-03-04T22:07:45.757Z,-1.40
2018-03-04T22:10:16.092Z,-1.40
2018-03-04T22:12:46.233Z,-1.40
2018-03-04T22:15:16.523Z,-1.40
2018-03-04T22:17:46.442Z,-1.40
2018-03-04T22:20:16.353Z,-1.40
2018-03-04T22:22:46.624Z,-1.40
2018-03-04T22:25:16.400Z,-1.40
2018-03-04T22:27:46.300Z,-1.40
2018-03-04T22:30:17.650Z,-1.40
2018-03-04T22:32:47.562Z,-1.40
2018-03-04T22:35:18.905Z,-1.40
2018-03-04T22:37:48.833Z,-1.40
2018-03-04T22:40:18.533Z,-1.40
2018-03-04T22:42:48.538Z,-1.30
2018-03-04T22:45:18.375Z,-1.30
2018-03-04T22:47:48.426Z,-1.30
2018-03-04T22:50:18.193Z,-1.30
2018-03-04T22:52:48.516Z,-1.30
2018-03-04T22:55:18.567Z,-1.40
2018-03-04T22:57:48.345Z,-1.30
2018-03-04T23:00:18.258Z,-1.30
2018-03-04T23:02:47.969Z,-1.30
2018-03-04T23:05:17.678Z,-1.30
2018-03-04T23:07:48.005Z,-1.30
2018-03-04T23:10:17.918Z,-1.30
2018-03-04T23:12:47.833Z,-1.30
2018-03-04T23:15:17.749Z,-1.30
2018-03-04T23:17:47.659Z,-1.30
2018-03-04T23:20:17.575Z,-1.30
2018-03-04T23:22:47.692Z,-1.30
2018-03-04T23:25:17.609Z,-1.30
2018-03-04T23:27:47.317Z,-1.30
2018-03-04T23:30:17.229Z,-1.30
2018-03-04T23:32:46.942Z,-1.30
2018-03-04T23:35:16.854Z,-1.30
2018-03-04T23:37:47.388Z,-1.30
2018-03-04T23:40:17.299Z,-1.30
2018-03-04T23:42:48.600Z,-1.30
2018-03-04T23:45:18.356Z,-1.30
2018-03-04T23:47:48.066Z,-1.30
2018-03-04T23:50:18.191Z,-1.30
2018-03-04T23:52:48.098Z,-1.30
2018-03-04T23:55:18.019Z,-1.30
2018-03-04T23:57:47.933Z,-1.30
